sensor_id;sensor_type;location;lat;lon;timestamp;P1;durP1;ratioP1;P2;durP2;ratioP2
17201;SDS011;8717;53.588;10.176;2024-01-10T00:00:30;27.13;;;16.40;;
17201;SDS011;8717;53.588;10.176;2024-01-10T00:02:58;29.57;;;16.23;;
17201;SDS011;8717;53.588;10.176;2024-01-10T00:05:25;28.20;;;16.60;;
17201;SDS011;8717;53.588;10.176;2024-01-10T00:07:52;26.60;;;17.00;;
17201;SDS011;8717;53.588;10.176;2024-01-10T00:10:20;24.60;;;15.93;;
17201;SDS011;8717;53.588;10.176;2024-01-10T00:12:47;27.53;;;16.67;;
17201;SDS011;8717;53.588;10.176;2024-01-10T00:15:15;24.37;;;16.07;;
17201;SDS011;8717;53.588;10.176;2024-01-10T00:17:42;28.97;;;16.27;;
17201;SDS011;8717;53.588;10.176;2024-01-10T00:20:09;103.13;;;22.33;;
17201;SDS011;8717;53.588;10.176;2024-01-10T00:22:35;25.27;;;16.00;;
17201;SDS011;8717;53.588;10.176;2024-01-10T00:25:03;25.00;;;15.73;;
17201;SDS011;8717;53.588;10.176;2024-01-10T00:27:31;25.50;;;16.37;;
17201;SDS011;8717;53.588;10.176;2024-01-10T00:29:58;28.33;;;17.70;;
17201;SDS011;8717;53.588;10.176;2024-01-10T00:32:25;27.40;;;16.13;;
17201;SDS011;8717;53.588;10.176;2024-01-10T00:34:52;27.97;;;17.07;;
17201;SDS011;8717;53.588;10.176;2024-01-10T00:37:19;26.87;;;16.03;;
17201;SDS011;8717;53.588;10.176;2024-01-10T00:39:46;30.87;;;16.77;;
17201;SDS011;8717;53.588;10.176;2024-01-10T00:42:13;29.57;;;16.33;;
17201;SDS011;8717;53.588;10.176;2024-01-10T00:44:41;31.97;;;18.00;;
17201;SDS011;8717;53.588;10.176;2024-01-10T00:47:08;34.30;;;17.97;;
17201;SDS011;8717;53.588;10.176;2024-01-10T00:49:36;34.13;;;17.47;;
17201;SDS011;8717;53.588;10.176;2024-01-10T00:52:03;39.63;;;18.10;;
17201;SDS011;8717;53.588;10.176;2024-01-10T00:54:30;35.07;;;18.43;;
17201;SDS011;8717;53.588;10.176;2024-01-10T00:56:57;31.27;;;17.33;;
17201;SDS011;8717;53.588;10.176;2024-01-10T00:59:23;29.97;;;16.43;;
17201;SDS011;8717;53.588;10.176;2024-01-10T01:01:52;57.00;;;18.07;;
17201;SDS011;8717;53.588;10.176;2024-01-10T01:04:18;41.83;;;18.37;;
17201;SDS011;8717;53.588;10.176;2024-01-10T01:06:45;49.50;;;17.67;;
17201;SDS011;8717;53.588;10.176;2024-01-10T01:09:12;45.07;;;18.50;;
17201;SDS011;8717;53.588;10.176;2024-01-10T01:11:40;100.03;;;22.80;;
17201;SDS011;8717;53.588;10.176;2024-01-10T01:14:07;60.73;;;19.90;;
17201;SDS011;8717;53.588;10.176;2024-01-10T01:16:34;64.70;;;22.47;;
17201;SDS011;8717;53.588;10.176;2024-01-10T01:19:02;94.93;;;24.20;;
17201;SDS011;8717;53.588;10.176;2024-01-10T01:21:29;77.67;;;22.47;;
17201;SDS011;8717;53.588;10.176;2024-01-10T01:23:56;59.57;;;21.40;;
17201;SDS011;8717;53.588;10.176;2024-01-10T01:26:22;84.10;;;25.77;;
17201;SDS011;8717;53.588;10.176;2024-01-10T01:28:49;167.40;;;28.97;;
17201;SDS011;8717;53.588;10.176;2024-01-10T01:31:16;73.57;;;24.70;;
17201;SDS011;8717;53.588;10.176;2024-01-10T01:33:43;134.53;;;27.87;;
17201;SDS011;8717;53.588;10.176;2024-01-10T01:36:11;95.17;;;27.03;;
17201;SDS011;8717;53.588;10.176;2024-01-10T01:38:38;66.93;;;22.07;;
17201;SDS011;8717;53.588;10.176;2024-01-10T01:41:04;93.80;;;26.00;;
17201;SDS011;8717;53.588;10.176;2024-01-10T01:43:32;113.17;;;25.13;;
17201;SDS011;8717;53.588;10.176;2024-01-10T01:45:59;97.83;;;23.57;;
17201;SDS011;8717;53.588;10.176;2024-01-10T01:48:26;96.90;;;23.90;;
17201;SDS011;8717;53.588;10.176;2024-01-10T01:50:54;49.03;;;19.40;;
17201;SDS011;8717;53.588;10.176;2024-01-10T01:53:24;58.57;;;19.93;;
17201;SDS011;8717;53.588;10.176;2024-01-10T01:55:53;80.03;;;21.13;;
17201;SDS011;8717;53.588;10.176;2024-01-10T01:58:21;50.87;;;18.53;;
17201;SDS011;8717;53.588;10.176;2024-01-10T02:00:49;99.03;;;22.97;;
17201;SDS011;8717;53.588;10.176;2024-01-10T02:03:17;47.43;;;19.13;;
17201;SDS011;8717;53.588;10.176;2024-01-10T02:05:44;68.33;;;20.00;;
17201;SDS011;8717;53.588;10.176;2024-01-10T02:08:12;72.13;;;20.23;;
17201;SDS011;8717;53.588;10.176;2024-01-10T02:10:41;66.47;;;19.97;;
17201;SDS011;8717;53.588;10.176;2024-01-10T02:13:08;92.90;;;20.67;;
17201;SDS011;8717;53.588;10.176;2024-01-10T02:15:36;70.47;;;21.13;;
17201;SDS011;8717;53.588;10.176;2024-01-10T02:18:04;70.00;;;20.43;;
17201;SDS011;8717;53.588;10.176;2024-01-10T02:20:31;52.97;;;19.03;;
17201;SDS011;8717;53.588;10.176;2024-01-10T02:22:59;103.37;;;22.33;;
17201;SDS011;8717;53.588;10.176;2024-01-10T02:25:27;45.27;;;19.77;;
17201;SDS011;8717;53.588;10.176;2024-01-10T02:27:53;37.87;;;18.40;;
17201;SDS011;8717;53.588;10.176;2024-01-10T02:30:20;38.40;;;18.20;;
17201;SDS011;8717;53.588;10.176;2024-01-10T02:32:47;39.13;;;19.23;;
17201;SDS011;8717;53.588;10.176;2024-01-10T02:35:14;120.23;;;25.07;;
17201;SDS011;8717;53.588;10.176;2024-01-10T02:37:41;169.70;;;29.40;;
17201;SDS011;8717;53.588;10.176;2024-01-10T02:40:08;124.07;;;24.77;;
17201;SDS011;8717;53.588;10.176;2024-01-10T02:42:37;55.87;;;21.23;;
17201;SDS011;8717;53.588;10.176;2024-01-10T02:45:03;46.47;;;20.57;;
17201;SDS011;8717;53.588;10.176;2024-01-10T02:47:30;49.00;;;22.37;;
17201;SDS011;8717;53.588;10.176;2024-01-10T02:49:57;72.73;;;22.67;;
17201;SDS011;8717;53.588;10.176;2024-01-10T02:52:23;44.13;;;22.13;;
17201;SDS011;8717;53.588;10.176;2024-01-10T02:54:50;42.97;;;20.83;;
17201;SDS011;8717;53.588;10.176;2024-01-10T02:57:17;58.50;;;20.60;;
17201;SDS011;8717;53.588;10.176;2024-01-10T02:59:45;38.80;;;19.60;;
17201;SDS011;8717;53.588;10.176;2024-01-10T03:02:12;36.17;;;18.60;;
17201;SDS011;8717;53.588;10.176;2024-01-10T03:04:39;36.10;;;18.73;;
17201;SDS011;8717;53.588;10.176;2024-01-10T03:07:06;41.03;;;19.17;;
17201;SDS011;8717;53.588;10.176;2024-01-10T03:09:32;37.73;;;20.17;;
17201;SDS011;8717;53.588;10.176;2024-01-10T03:11:59;43.00;;;20.80;;
17201;SDS011;8717;53.588;10.176;2024-01-10T03:14:26;37.00;;;19.83;;
17201;SDS011;8717;53.588;10.176;2024-01-10T03:16:54;44.67;;;19.53;;
17201;SDS011;8717;53.588;10.176;2024-01-10T03:19:21;39.27;;;20.70;;
17201;SDS011;8717;53.588;10.176;2024-01-10T03:21:48;36.27;;;18.80;;
17201;SDS011;8717;53.588;10.176;2024-01-10T03:24:14;107.27;;;24.10;;
17201;SDS011;8717;53.588;10.176;2024-01-10T03:26:41;39.37;;;20.17;;
17201;SDS011;8717;53.588;10.176;2024-01-10T03:29:08;37.30;;;19.53;;
17201;SDS011;8717;53.588;10.176;2024-01-10T03:31:36;36.40;;;19.70;;
17201;SDS011;8717;53.588;10.176;2024-01-10T03:34:04;39.13;;;19.60;;
17201;SDS011;8717;53.588;10.176;2024-01-10T03:36:31;37.07;;;19.97;;
17201;SDS011;8717;53.588;10.176;2024-01-10T03:38:57;38.90;;;20.87;;
17201;SDS011;8717;53.588;10.176;2024-01-10T03:41:24;33.07;;;18.60;;
17201;SDS011;8717;53.588;10.176;2024-01-10T03:43:51;36.57;;;19.53;;
17201;SDS011;8717;53.588;10.176;2024-01-10T03:46:18;29.47;;;17.83;;
17201;SDS011;8717;53.588;10.176;2024-01-10T03:48:45;33.17;;;18.07;;
17201;SDS011;8717;53.588;10.176;2024-01-10T03:51:15;33.00;;;19.57;;
17201;SDS011;8717;53.588;10.176;2024-01-10T03:53:43;32.27;;;18.47;;
17201;SDS011;8717;53.588;10.176;2024-01-10T03:56:10;33.00;;;18.77;;
17201;SDS011;8717;53.588;10.176;2024-01-10T03:58:37;37.17;;;18.93;;
17201;SDS011;8717;53.588;10.176;2024-01-10T04:01:04;33.70;;;18.33;;
17201;SDS011;8717;53.588;10.176;2024-01-10T04:03:32;34.47;;;18.97;;
17201;SDS011;8717;53.588;10.176;2024-01-10T04:05:59;31.93;;;18.53;;
17201;SDS011;8717;53.588;10.176;2024-01-10T04:08:28;32.73;;;18.17;;
17201;SDS011;8717;53.588;10.176;2024-01-10T04:10:55;29.70;;;17.43;;
17201;SDS011;8717;53.588;10.176;2024-01-10T04:13:22;34.87;;;19.10;;
17201;SDS011;8717;53.588;10.176;2024-01-10T04:15:49;32.83;;;18.77;;
17201;SDS011;8717;53.588;10.176;2024-01-10T04:18:16;32.23;;;18.43;;
17201;SDS011;8717;53.588;10.176;2024-01-10T04:20:43;34.27;;;18.57;;
17201;SDS011;8717;53.588;10.176;2024-01-10T04:23:10;30.77;;;16.97;;
17201;SDS011;8717;53.588;10.176;2024-01-10T04:25:38;33.40;;;17.93;;
17201;SDS011;8717;53.588;10.176;2024-01-10T04:28:05;32.47;;;18.43;;
17201;SDS011;8717;53.588;10.176;2024-01-10T04:30:32;32.70;;;18.97;;
17201;SDS011;8717;53.588;10.176;2024-01-10T04:32:59;31.50;;;18.30;;
17201;SDS011;8717;53.588;10.176;2024-01-10T04:35:26;29.73;;;17.50;;
17201;SDS011;8717;53.588;10.176;2024-01-10T04:37:53;28.43;;;16.57;;
17201;SDS011;8717;53.588;10.176;2024-01-10T04:40:20;27.93;;;16.40;;
17201;SDS011;8717;53.588;10.176;2024-01-10T04:42:48;27.97;;;17.10;;
17201;SDS011;8717;53.588;10.176;2024-01-10T04:45:15;26.23;;;15.33;;
17201;SDS011;8717;53.588;10.176;2024-01-10T04:47:42;26.40;;;15.40;;
17201;SDS011;8717;53.588;10.176;2024-01-10T04:50:10;25.17;;;15.00;;
17201;SDS011;8717;53.588;10.176;2024-01-10T04:52:37;26.77;;;15.03;;
17201;SDS011;8717;53.588;10.176;2024-01-10T04:55:04;23.17;;;14.40;;
17201;SDS011;8717;53.588;10.176;2024-01-10T04:57:33;26.93;;;14.87;;
17201;SDS011;8717;53.588;10.176;2024-01-10T05:00:01;26.93;;;14.63;;
17201;SDS011;8717;53.588;10.176;2024-01-10T05:02:29;22.30;;;14.07;;
17201;SDS011;8717;53.588;10.176;2024-01-10T05:04:56;23.17;;;12.97;;
17201;SDS011;8717;53.588;10.176;2024-01-10T05:07:24;23.57;;;12.67;;
17201;SDS011;8717;53.588;10.176;2024-01-10T05:09:51;21.27;;;11.70;;
17201;SDS011;8717;53.588;10.176;2024-01-10T05:12:18;21.73;;;13.00;;
17201;SDS011;8717;53.588;10.176;2024-01-10T05:14:45;22.07;;;12.50;;
17201;SDS011;8717;53.588;10.176;2024-01-10T05:17:13;24.57;;;12.90;;
17201;SDS011;8717;53.588;10.176;2024-01-10T05:19:40;22.50;;;12.43;;
17201;SDS011;8717;53.588;10.176;2024-01-10T05:22:07;42.77;;;13.10;;
17201;SDS011;8717;53.588;10.176;2024-01-10T05:24:34;96.33;;;16.27;;
17201;SDS011;8717;53.588;10.176;2024-01-10T05:27:01;100.37;;;17.33;;
17201;SDS011;8717;53.588;10.176;2024-01-10T05:29:29;24.73;;;12.10;;
17201;SDS011;8717;53.588;10.176;2024-01-10T05:31:55;64.77;;;14.83;;
17201;SDS011;8717;53.588;10.176;2024-01-10T05:34:24;36.70;;;12.80;;
17201;SDS011;8717;53.588;10.176;2024-01-10T05:36:51;21.00;;;10.77;;
17201;SDS011;8717;53.588;10.176;2024-01-10T05:39:19;17.67;;;10.87;;
17201;SDS011;8717;53.588;10.176;2024-01-10T05:41:45;15.43;;;10.77;;
17201;SDS011;8717;53.588;10.176;2024-01-10T05:44:12;22.30;;;11.23;;
17201;SDS011;8717;53.588;10.176;2024-01-10T05:46:40;16.40;;;11.07;;
17201;SDS011;8717;53.588;10.176;2024-01-10T05:49:07;21.67;;;11.17;;
17201;SDS011;8717;53.588;10.176;2024-01-10T05:51:37;14.93;;;10.07;;
17201;SDS011;8717;53.588;10.176;2024-01-10T05:54:03;31.90;;;10.77;;
17201;SDS011;8717;53.588;10.176;2024-01-10T05:56:30;16.77;;;10.20;;
17201;SDS011;8717;53.588;10.176;2024-01-10T05:58:57;44.53;;;10.87;;
17201;SDS011;8717;53.588;10.176;2024-01-10T06:01:24;21.80;;;9.53;;
17201;SDS011;8717;53.588;10.176;2024-01-10T06:03:51;14.73;;;8.70;;
17201;SDS011;8717;53.588;10.176;2024-01-10T06:06:17;13.60;;;9.17;;
17201;SDS011;8717;53.588;10.176;2024-01-10T06:08:45;14.60;;;9.73;;
17201;SDS011;8717;53.588;10.176;2024-01-10T06:11:12;14.63;;;9.20;;
17201;SDS011;8717;53.588;10.176;2024-01-10T06:13:39;15.90;;;8.93;;
17201;SDS011;8717;53.588;10.176;2024-01-10T06:16:06;14.83;;;9.03;;
17201;SDS011;8717;53.588;10.176;2024-01-10T06:18:33;13.30;;;8.90;;
17201;SDS011;8717;53.588;10.176;2024-01-10T06:21:00;15.10;;;8.93;;
17201;SDS011;8717;53.588;10.176;2024-01-10T06:23:27;14.80;;;9.17;;
17201;SDS011;8717;53.588;10.176;2024-01-10T06:25:55;12.57;;;8.93;;
17201;SDS011;8717;53.588;10.176;2024-01-10T06:28:22;14.60;;;9.57;;
17201;SDS011;8717;53.588;10.176;2024-01-10T06:30:49;17.17;;;9.97;;
17201;SDS011;8717;53.588;10.176;2024-01-10T06:33:17;49.83;;;11.93;;
17201;SDS011;8717;53.588;10.176;2024-01-10T06:35:45;20.00;;;11.07;;
17201;SDS011;8717;53.588;10.176;2024-01-10T06:38:12;17.47;;;10.77;;
17201;SDS011;8717;53.588;10.176;2024-01-10T06:40:39;17.33;;;10.30;;
17201;SDS011;8717;53.588;10.176;2024-01-10T06:43:07;19.43;;;10.93;;
17201;SDS011;8717;53.588;10.176;2024-01-10T06:45:34;103.00;;;18.07;;
17201;SDS011;8717;53.588;10.176;2024-01-10T06:48:01;17.40;;;11.73;;
17201;SDS011;8717;53.588;10.176;2024-01-10T06:50:28;17.27;;;10.67;;
17201;SDS011;8717;53.588;10.176;2024-01-10T06:52:55;21.57;;;10.60;;
17201;SDS011;8717;53.588;10.176;2024-01-10T06:55:22;27.53;;;12.50;;
17201;SDS011;8717;53.588;10.176;2024-01-10T06:57:49;19.30;;;11.37;;
17201;SDS011;8717;53.588;10.176;2024-01-10T07:00:19;16.37;;;10.80;;
17201;SDS011;8717;53.588;10.176;2024-01-10T07:02:46;59.90;;;12.30;;
17201;SDS011;8717;53.588;10.176;2024-01-10T07:05:14;27.87;;;10.07;;
17201;SDS011;8717;53.588;10.176;2024-01-10T07:07:41;36.47;;;10.73;;
17201;SDS011;8717;53.588;10.176;2024-01-10T07:10:09;18.00;;;9.77;;
17201;SDS011;8717;53.588;10.176;2024-01-10T07:12:36;20.57;;;10.83;;
17201;SDS011;8717;53.588;10.176;2024-01-10T07:15:04;16.70;;;9.53;;
17201;SDS011;8717;53.588;10.176;2024-01-10T07:17:33;34.67;;;10.93;;
17201;SDS011;8717;53.588;10.176;2024-01-10T07:20:00;56.00;;;11.93;;
17201;SDS011;8717;53.588;10.176;2024-01-10T07:22:28;18.87;;;11.77;;
17201;SDS011;8717;53.588;10.176;2024-01-10T07:24:54;19.17;;;11.37;;
17201;SDS011;8717;53.588;10.176;2024-01-10T07:27:22;17.70;;;11.60;;
17201;SDS011;8717;53.588;10.176;2024-01-10T07:29:49;18.50;;;11.23;;
17201;SDS011;8717;53.588;10.176;2024-01-10T07:32:16;23.73;;;10.80;;
17201;SDS011;8717;53.588;10.176;2024-01-10T07:34:46;70.87;;;14.07;;
17201;SDS011;8717;53.588;10.176;2024-01-10T07:37:13;22.17;;;11.13;;
17201;SDS011;8717;53.588;10.176;2024-01-10T07:39:41;23.47;;;11.73;;
17201;SDS011;8717;53.588;10.176;2024-01-10T07:42:08;69.03;;;13.77;;
17201;SDS011;8717;53.588;10.176;2024-01-10T07:44:35;26.03;;;12.17;;
17201;SDS011;8717;53.588;10.176;2024-01-10T07:47:02;18.63;;;11.87;;
17201;SDS011;8717;53.588;10.176;2024-01-10T07:49:28;20.20;;;11.20;;
17201;SDS011;8717;53.588;10.176;2024-01-10T07:51:58;18.87;;;10.80;;
17201;SDS011;8717;53.588;10.176;2024-01-10T07:54:25;35.43;;;11.23;;
17201;SDS011;8717;53.588;10.176;2024-01-10T07:56:52;40.57;;;11.33;;
17201;SDS011;8717;53.588;10.176;2024-01-10T07:59:19;22.10;;;11.93;;
17201;SDS011;8717;53.588;10.176;2024-01-10T08:01:53;27.90;;;10.47;;
17201;SDS011;8717;53.588;10.176;2024-01-10T08:04:21;17.90;;;10.20;;
17201;SDS011;8717;53.588;10.176;2024-01-10T08:06:48;19.77;;;10.97;;
17201;SDS011;8717;53.588;10.176;2024-01-10T08:09:16;18.60;;;11.23;;
17201;SDS011;8717;53.588;10.176;2024-01-10T08:11:44;22.17;;;10.90;;
17201;SDS011;8717;53.588;10.176;2024-01-10T08:14:11;15.50;;;10.60;;
17201;SDS011;8717;53.588;10.176;2024-01-10T08:16:37;33.30;;;10.10;;
17201;SDS011;8717;53.588;10.176;2024-01-10T08:19:04;15.77;;;10.00;;
17201;SDS011;8717;53.588;10.176;2024-01-10T08:21:31;20.57;;;10.53;;
17201;SDS011;8717;53.588;10.176;2024-01-10T08:23:58;17.87;;;10.50;;
17201;SDS011;8717;53.588;10.176;2024-01-10T08:26:26;16.10;;;10.67;;
17201;SDS011;8717;53.588;10.176;2024-01-10T08:28:53;24.20;;;11.20;;
17201;SDS011;8717;53.588;10.176;2024-01-10T08:31:20;16.47;;;10.67;;
17201;SDS011;8717;53.588;10.176;2024-01-10T08:33:48;15.80;;;10.87;;
17201;SDS011;8717;53.588;10.176;2024-01-10T08:36:14;22.37;;;10.97;;
17201;SDS011;8717;53.588;10.176;2024-01-10T08:38:41;58.80;;;11.60;;
17201;SDS011;8717;53.588;10.176;2024-01-10T08:41:09;16.07;;;10.43;;
17201;SDS011;8717;53.588;10.176;2024-01-10T08:43:37;23.70;;;10.67;;
17201;SDS011;8717;53.588;10.176;2024-01-10T08:46:04;23.07;;;11.67;;
17201;SDS011;8717;53.588;10.176;2024-01-10T08:48:31;21.93;;;10.57;;
17201;SDS011;8717;53.588;10.176;2024-01-10T08:50:58;16.27;;;10.40;;
17201;SDS011;8717;53.588;10.176;2024-01-10T08:53:25;16.27;;;10.83;;
17201;SDS011;8717;53.588;10.176;2024-01-10T08:55:52;15.83;;;10.20;;
17201;SDS011;8717;53.588;10.176;2024-01-10T08:58:19;58.23;;;11.63;;
17201;SDS011;8717;53.588;10.176;2024-01-10T09:00:48;16.83;;;10.20;;
17201;SDS011;8717;53.588;10.176;2024-01-10T09:03:15;16.30;;;10.40;;
17201;SDS011;8717;53.588;10.176;2024-01-10T09:05:42;61.57;;;12.67;;
17201;SDS011;8717;53.588;10.176;2024-01-10T09:08:08;31.57;;;12.00;;
17201;SDS011;8717;53.588;10.176;2024-01-10T09:10:35;17.70;;;10.93;;
17201;SDS011;8717;53.588;10.176;2024-01-10T09:13:03;30.37;;;10.47;;
17201;SDS011;8717;53.588;10.176;2024-01-10T09:15:30;50.43;;;12.30;;
17201;SDS011;8717;53.588;10.176;2024-01-10T09:17:59;21.73;;;10.00;;
17201;SDS011;8717;53.588;10.176;2024-01-10T09:20:25;28.63;;;11.50;;
17201;SDS011;8717;53.588;10.176;2024-01-10T09:22:52;23.00;;;12.50;;
17201;SDS011;8717;53.588;10.176;2024-01-10T09:25:19;22.13;;;11.53;;
17201;SDS011;8717;53.588;10.176;2024-01-10T09:27:46;18.60;;;12.37;;
17201;SDS011;8717;53.588;10.176;2024-01-10T09:30:13;20.83;;;12.70;;
17201;SDS011;8717;53.588;10.176;2024-01-10T09:32:41;24.67;;;10.93;;
17201;SDS011;8717;53.588;10.176;2024-01-10T09:35:09;15.57;;;10.30;;
17201;SDS011;8717;53.588;10.176;2024-01-10T09:37:37;20.67;;;11.97;;
17201;SDS011;8717;53.588;10.176;2024-01-10T09:40:04;21.67;;;12.97;;
17201;SDS011;8717;53.588;10.176;2024-01-10T09:42:32;35.93;;;12.77;;
17201;SDS011;8717;53.588;10.176;2024-01-10T09:45:00;37.27;;;13.90;;
17201;SDS011;8717;53.588;10.176;2024-01-10T09:47:30;21.63;;;12.13;;
17201;SDS011;8717;53.588;10.176;2024-01-10T09:49:59;20.30;;;11.67;;
17201;SDS011;8717;53.588;10.176;2024-01-10T09:52:28;18.17;;;10.97;;
17201;SDS011;8717;53.588;10.176;2024-01-10T09:54:58;19.13;;;11.60;;
17201;SDS011;8717;53.588;10.176;2024-01-10T09:57:26;28.80;;;10.30;;
17201;SDS011;8717;53.588;10.176;2024-01-10T09:59:54;18.63;;;11.40;;
17201;SDS011;8717;53.588;10.176;2024-01-10T10:02:20;19.93;;;10.97;;
17201;SDS011;8717;53.588;10.176;2024-01-10T10:04:50;17.87;;;10.63;;
17201;SDS011;8717;53.588;10.176;2024-01-10T10:07:21;16.93;;;10.30;;
17201;SDS011;8717;53.588;10.176;2024-01-10T10:09:49;18.20;;;11.03;;
17201;SDS011;8717;53.588;10.176;2024-01-10T10:12:18;33.33;;;12.60;;
17201;SDS011;8717;53.588;10.176;2024-01-10T10:14:44;19.17;;;11.93;;
17201;SDS011;8717;53.588;10.176;2024-01-10T10:17:14;18.60;;;11.37;;
17201;SDS011;8717;53.588;10.176;2024-01-10T10:19:41;20.10;;;12.27;;
17201;SDS011;8717;53.588;10.176;2024-01-10T10:22:09;23.23;;;12.10;;
17201;SDS011;8717;53.588;10.176;2024-01-10T10:24:36;20.37;;;12.10;;
17201;SDS011;8717;53.588;10.176;2024-01-10T10:27:09;18.97;;;11.67;;
17201;SDS011;8717;53.588;10.176;2024-01-10T10:29:37;22.53;;;12.27;;
17201;SDS011;8717;53.588;10.176;2024-01-10T10:32:05;18.60;;;10.77;;
17201;SDS011;8717;53.588;10.176;2024-01-10T10:34:33;22.33;;;12.17;;
17201;SDS011;8717;53.588;10.176;2024-01-10T10:37:00;25.60;;;10.67;;
17201;SDS011;8717;53.588;10.176;2024-01-10T10:39:27;18.70;;;11.20;;
17201;SDS011;8717;53.588;10.176;2024-01-10T10:41:54;19.57;;;10.87;;
17201;SDS011;8717;53.588;10.176;2024-01-10T10:44:24;18.57;;;11.07;;
17201;SDS011;8717;53.588;10.176;2024-01-10T10:46:53;21.80;;;13.03;;
17201;SDS011;8717;53.588;10.176;2024-01-10T10:49:22;20.77;;;12.43;;
17201;SDS011;8717;53.588;10.176;2024-01-10T10:51:55;15.40;;;10.03;;
17201;SDS011;8717;53.588;10.176;2024-01-10T10:54:23;16.10;;;10.33;;
17201;SDS011;8717;53.588;10.176;2024-01-10T10:56:54;15.10;;;9.83;;
17201;SDS011;8717;53.588;10.176;2024-01-10T10:59:25;14.63;;;9.03;;
17201;SDS011;8717;53.588;10.176;2024-01-10T11:01:53;15.57;;;9.63;;
17201;SDS011;8717;53.588;10.176;2024-01-10T11:04:22;16.80;;;9.87;;
17201;SDS011;8717;53.588;10.176;2024-01-10T11:06:50;18.47;;;11.13;;
17201;SDS011;8717;53.588;10.176;2024-01-10T11:09:17;21.40;;;11.13;;
17201;SDS011;8717;53.588;10.176;2024-01-10T11:11:54;13.60;;;8.50;;
17201;SDS011;8717;53.588;10.176;2024-01-10T11:14:37;11.13;;;7.23;;
17201;SDS011;8717;53.588;10.176;2024-01-10T11:17:25;36.70;;;7.83;;
17201;SDS011;8717;53.588;10.176;2024-01-10T11:20:18;10.40;;;6.97;;
17201;SDS011;8717;53.588;10.176;2024-01-10T11:23:11;15.67;;;9.80;;
17201;SDS011;8717;53.588;10.176;2024-01-10T11:25:52;12.83;;;9.33;;
17201;SDS011;8717;53.588;10.176;2024-01-10T11:28:19;10.03;;;6.93;;
17201;SDS011;8717;53.588;10.176;2024-01-10T11:30:49;11.87;;;6.93;;
17201;SDS011;8717;53.588;10.176;2024-01-10T11:33:20;9.80;;;6.00;;
17201;SDS011;8717;53.588;10.176;2024-01-10T11:38:39;9.47;;;6.17;;
17201;SDS011;8717;53.588;10.176;2024-01-10T11:41:20;8.77;;;6.10;;
17201;SDS011;8717;53.588;10.176;2024-01-10T11:46:56;18.77;;;7.40;;
17201;SDS011;8717;53.588;10.176;2024-01-10T11:49:24;13.70;;;7.13;;
17201;SDS011;8717;53.588;10.176;2024-01-10T11:51:53;10.00;;;6.27;;
17201;SDS011;8717;53.588;10.176;2024-01-10T11:54:34;10.93;;;6.57;;
17201;SDS011;8717;53.588;10.176;2024-01-10T11:57:13;11.43;;;6.30;;
17201;SDS011;8717;53.588;10.176;2024-01-10T11:59:44;10.70;;;6.87;;
17201;SDS011;8717;53.588;10.176;2024-01-10T12:02:13;11.17;;;7.10;;
17201;SDS011;8717;53.588;10.176;2024-01-10T12:04:39;9.30;;;5.87;;
17201;SDS011;8717;53.588;10.176;2024-01-10T12:07:07;18.03;;;6.90;;
17201;SDS011;8717;53.588;10.176;2024-01-10T12:09:35;10.70;;;6.93;;
17201;SDS011;8717;53.588;10.176;2024-01-10T12:12:02;11.20;;;7.17;;
17201;SDS011;8717;53.588;10.176;2024-01-10T12:14:29;11.43;;;6.43;;
17201;SDS011;8717;53.588;10.176;2024-01-10T12:16:56;9.20;;;6.10;;
17201;SDS011;8717;53.588;10.176;2024-01-10T12:19:24;12.13;;;6.87;;
17201;SDS011;8717;53.588;10.176;2024-01-10T12:21:51;9.93;;;6.67;;
17201;SDS011;8717;53.588;10.176;2024-01-10T12:24:19;16.53;;;7.27;;
17201;SDS011;8717;53.588;10.176;2024-01-10T12:26:46;9.00;;;6.57;;
17201;SDS011;8717;53.588;10.176;2024-01-10T12:29:16;12.83;;;7.00;;
17201;SDS011;8717;53.588;10.176;2024-01-10T12:31:45;10.60;;;6.30;;
17201;SDS011;8717;53.588;10.176;2024-01-10T12:34:12;8.57;;;6.20;;
17201;SDS011;8717;53.588;10.176;2024-01-10T12:36:41;15.13;;;6.57;;
17201;SDS011;8717;53.588;10.176;2024-01-10T12:39:08;8.33;;;5.90;;
17201;SDS011;8717;53.588;10.176;2024-01-10T12:41:36;10.43;;;6.77;;
17201;SDS011;8717;53.588;10.176;2024-01-10T12:44:03;8.73;;;6.27;;
17201;SDS011;8717;53.588;10.176;2024-01-10T12:46:32;9.13;;;6.23;;
17201;SDS011;8717;53.588;10.176;2024-01-10T12:48:59;7.40;;;5.30;;
17201;SDS011;8717;53.588;10.176;2024-01-10T12:51:27;14.10;;;6.37;;
17201;SDS011;8717;53.588;10.176;2024-01-10T12:53:56;12.47;;;7.37;;
17201;SDS011;8717;53.588;10.176;2024-01-10T12:56:25;11.47;;;7.67;;
17201;SDS011;8717;53.588;10.176;2024-01-10T12:58:52;9.87;;;6.60;;
17201;SDS011;8717;53.588;10.176;2024-01-10T13:01:21;10.53;;;8.17;;
17201;SDS011;8717;53.588;10.176;2024-01-10T13:03:48;9.30;;;6.40;;
17201;SDS011;8717;53.588;10.176;2024-01-10T13:06:15;8.87;;;5.90;;
17201;SDS011;8717;53.588;10.176;2024-01-10T13:08:44;9.23;;;6.17;;
17201;SDS011;8717;53.588;10.176;2024-01-10T13:11:12;9.73;;;6.70;;
17201;SDS011;8717;53.588;10.176;2024-01-10T13:13:39;9.50;;;6.80;;
17201;SDS011;8717;53.588;10.176;2024-01-10T13:16:06;10.00;;;6.60;;
17201;SDS011;8717;53.588;10.176;2024-01-10T13:18:35;9.20;;;6.73;;
17201;SDS011;8717;53.588;10.176;2024-01-10T13:21:03;10.00;;;6.60;;
17201;SDS011;8717;53.588;10.176;2024-01-10T13:23:31;11.33;;;7.60;;
17201;SDS011;8717;53.588;10.176;2024-01-10T13:25:58;10.27;;;7.17;;
17201;SDS011;8717;53.588;10.176;2024-01-10T13:28:26;12.33;;;7.93;;
17201;SDS011;8717;53.588;10.176;2024-01-10T13:30:54;10.40;;;7.40;;
17201;SDS011;8717;53.588;10.176;2024-01-10T13:33:22;10.83;;;7.90;;
17201;SDS011;8717;53.588;10.176;2024-01-10T13:35:50;12.17;;;8.90;;
17201;SDS011;8717;53.588;10.176;2024-01-10T13:38:18;10.43;;;7.20;;
17201;SDS011;8717;53.588;10.176;2024-01-10T13:40:45;9.23;;;7.10;;
17201;SDS011;8717;53.588;10.176;2024-01-10T13:43:11;10.00;;;7.57;;
17201;SDS011;8717;53.588;10.176;2024-01-10T13:45:41;12.83;;;8.00;;
17201;SDS011;8717;53.588;10.176;2024-01-10T13:48:08;10.77;;;7.47;;
17201;SDS011;8717;53.588;10.176;2024-01-10T13:50:36;14.03;;;7.63;;
17201;SDS011;8717;53.588;10.176;2024-01-10T13:53:02;10.23;;;7.13;;
17201;SDS011;8717;53.588;10.176;2024-01-10T13:55:30;11.27;;;7.70;;
17201;SDS011;8717;53.588;10.176;2024-01-10T13:57:57;9.30;;;7.60;;
17201;SDS011;8717;53.588;10.176;2024-01-10T14:00:23;12.30;;;7.77;;
17201;SDS011;8717;53.588;10.176;2024-01-10T14:02:52;10.30;;;7.40;;
17201;SDS011;8717;53.588;10.176;2024-01-10T14:05:23;11.13;;;7.70;;
17201;SDS011;8717;53.588;10.176;2024-01-10T14:07:50;10.67;;;7.20;;
17201;SDS011;8717;53.588;10.176;2024-01-10T14:10:17;12.03;;;7.80;;
17201;SDS011;8717;53.588;10.176;2024-01-10T14:12:44;16.03;;;8.27;;
17201;SDS011;8717;53.588;10.176;2024-01-10T14:15:11;12.30;;;7.67;;
17201;SDS011;8717;53.588;10.176;2024-01-10T14:17:39;14.00;;;7.90;;
17201;SDS011;8717;53.588;10.176;2024-01-10T14:20:08;12.03;;;7.90;;
17201;SDS011;8717;53.588;10.176;2024-01-10T14:22:36;10.13;;;7.30;;
17201;SDS011;8717;53.588;10.176;2024-01-10T14:25:03;12.33;;;7.67;;
17201;SDS011;8717;53.588;10.176;2024-01-10T14:27:30;10.47;;;7.37;;
17201;SDS011;8717;53.588;10.176;2024-01-10T14:29:57;11.07;;;7.77;;
17201;SDS011;8717;53.588;10.176;2024-01-10T14:32:25;11.57;;;8.43;;
17201;SDS011;8717;53.588;10.176;2024-01-10T14:34:52;11.87;;;9.33;;